Time;durP1;ratioP1;P1;durP2;ratioP2;P2;SDS_P1;SDS_P2;PMS_P1;PMS_P2;Temp;Humidity;BMP_temperature;BMP_pressure;BME280_temperature;BME280_humidity;BME280_pressure;Samples;Min_cycle;Max_cycle;Signal;HPM_P1;HPM_P2
2021/07/31 00:02:09;;;;;;;6.95;1.00;;;;;;;;;;5046218;28;20295;-66
2021/07/31 00:04:34;;;;;;;7.45;1.30;;;;;;;;;;5049596;28;20448;-67
2021/07/31 00:06:59;;;;;;;4.68;1.25;;;;;;;;;;5050403;28;20021;-66
2021/07/31 00:09:24;;;;;;;10.83;1.47;;;;;;;;;;5052630;28;20021;-67
2021/07/31 00:11:49;;;;;;;10.70;1.50;;;;;;;;;;5052919;28;21028;-66
2021/07/31 00:14:15;;;;;;;5.77;1.17;;;;;;;;;;5052518;28;20362;-67
2021/07/31 00:16:40;;;;;;;6.68;1.40;;;;;;;;;;5053236;28;20255;-65
2021/07/31 00:19:05;;;;;;;7.63;1.40;;;;;;;;;;5053265;28;20024;-65
2021/07/31 00:21:31;;;;;;;6.17;1.13;;;;;;;;;;5053058;28;20128;-66
2021/07/31 00:23:56;;;;;;;6.03;1.80;;;;;;;;;;5052918;28;20260;-66
2021/07/31 00:26:21;;;;;;;8.30;2.10;;;;;;;;;;5052791;28;20020;-65
2021/07/31 00:28:47;;;;;;;6.38;1.40;;;;;;;;;;5052561;28;20027;-66
2021/07/31 00:31:12;;;;;;;2.92;0.80;;;;;;;;;;5052603;28;20040;-65
2021/07/31 00:33:37;;;;;;;5.03;1.20;;;;;;;;;;5048449;28;20026;-67
2021/07/31 00:36:03;;;;;;;6.20;1.67;;;;;;;;;;5044720;28;20493;-66
2021/07/31 00:38:28;;;;;;;7.45;1.20;;;;;;;;;;5052705;28;20267;-66
2021/07/31 00:40:53;;;;;;;6.03;1.02;;;;;;;;;;5053095;28;20025;-66
2021/07/31 00:43:18;;;;;;;16.73;1.45;;;;;;;;;;5034830;28;20017;-65
2021/07/31 00:45:44;;;;;;;4.73;0.97;;;;;;;;;;5053188;28;20043;-65
2021/07/31 00:48:09;;;;;;;5.60;1.42;;;;;;;;;;5052530;28;20345;-65
2021/07/31 00:50:34;;;;;;;3.05;1.15;;;;;;;;;;5052659;28;20025;-67
2021/07/31 00:53:00;;;;;;;3.95;1.25;;;;;;;;;;5053018;28;20032;-65
2021/07/31 00:55:26;;;;;;;4.55;1.10;;;;;;;;;;5052261;28;20067;-66
2021/07/31 00:57:52;;;;;;;3.50;1.30;;;;;;;;;;5052237;28;20151;-65
2021/07/31 01:00:17;;;;;;;9.77;1.73;;;;;;;;;;5041954;28;20030;-66
2021/07/31 01:02:43;;;;;;;5.03;1.20;;;;;;;;;;5052866;28;20078;-65
2021/07/31 01:05:08;;;;;;;4.45;1.15;;;;;;;;;;5052149;28;20033;-66
2021/07/31 01:07:35;;;;;;;1.90;0.68;;;;;;;;;;5052277;28;20025;-65
2021/07/31 01:10:00;;;;;;;9.50;1.20;;;;;;;;;;5052266;28;20082;-67
2021/07/31 01:12:26;;;;;;;5.40;1.10;;;;;;;;;;5052216;28;20037;-65
2021/07/31 01:14:51;;;;;;;6.40;1.20;;;;;;;;;;5051941;28;20029;-67
2021/07/31 01:17:16;;;;;;;3.43;1.30;;;;;;;;;;5051872;28;20264;-66
2021/07/31 01:19:41;;;;;;;4.87;1.30;;;;;;;;;;5050904;28;20263;-66
2021/07/31 01:22:07;;;;;;;9.40;1.38;;;;;;;;;;5051821;28;20264;-65
2021/07/31 01:24:32;;;;;;;4.32;1.50;;;;;;;;;;5051850;28;20040;-65
2021/07/31 01:26:57;;;;;;;8.73;1.13;;;;;;;;;;5050872;28;20040;-68
2021/07/31 01:29:23;;;;;;;3.88;1.17;;;;;;;;;;5051542;28;20108;-65
2021/07/31 01:31:48;;;;;;;1.90;0.80;;;;;;;;;;5052518;28;20025;-66
2021/07/31 01:34:13;;;;;;;5.97;1.17;;;;;;;;;;5051584;28;20052;-65
2021/07/31 01:36:38;;;;;;;8.80;1.27;;;;;;;;;;5051784;28;20017;-66
2021/07/31 01:39:04;;;;;;;7.23;1.30;;;;;;;;;;5049052;28;20017;-66
2021/07/31 01:41:29;;;;;;;7.00;1.10;;;;;;;;;;5051510;28;20259;-65
2021/07/31 01:43:55;;;;;;;5.25;1.48;;;;;;;;;;5051734;28;20033;-66
2021/07/31 01:46:21;;;;;;;9.25;1.85;;;;;;;;;;5051279;28;20025;-65
2021/07/31 01:48:46;;;;;;;10.07;2.28;;;;;;;;;;5051412;28;20078;-65
2021/07/31 01:51:11;;;;;;;14.05;2.67;;;;;;;;;;5051634;28;20063;-67
2021/07/31 01:53:36;;;;;;;2.83;1.05;;;;;;;;;;5051233;28;20644;-66
2021/07/31 01:56:02;;;;;;;9.50;1.33;;;;;;;;;;5051506;28;20013;-66
2021/07/31 01:58:27;;;;;;;11.55;2.50;;;;;;;;;;5051294;28;20117;-65
2021/07/31 02:00:53;;;;;;;6.22;1.60;;;;;;;;;;5051224;28;20021;-66
2021/07/31 02:03:19;;;;;;;6.72;1.77;;;;;;;;;;5051007;28;20020;-66
2021/07/31 02:05:44;;;;;;;5.07;1.33;;;;;;;;;;5049657;28;20029;-65
2021/07/31 02:08:10;;;;;;;3.40;1.40;;;;;;;;;;5051269;28;20029;-65
2021/07/31 02:10:35;;;;;;;7.80;2.47;;;;;;;;;;5051113;28;20028;-67
2021/07/31 02:13:00;;;;;;;3.43;1.00;;;;;;;;;;5051250;28;20496;-64
2021/07/31 02:15:25;;;;;;;2.90;0.85;;;;;;;;;;5050577;28;20305;-65
2021/07/31 02:17:51;;;;;;;4.55;1.23;;;;;;;;;;5050666;28;20116;-65
2021/07/31 02:20:16;;;;;;;5.70;1.38;;;;;;;;;;5051263;28;20381;-65
2021/07/31 02:22:41;;;;;;;4.77;1.00;;;;;;;;;;5050787;28;20381;-65
2021/07/31 02:25:06;;;;;;;4.87;1.37;;;;;;;;;;5050780;28;20259;-68
2021/07/31 02:27:31;;;;;;;4.82;1.08;;;;;;;;;;5050451;28;20687;-69
2021/07/31 02:29:57;;;;;;;3.13;1.13;;;;;;;;;;5050259;28;20029;-65
2021/07/31 02:32:22;;;;;;;8.77;2.15;;;;;;;;;;5050227;28;20332;-65
2021/07/31 02:34:48;;;;;;;8.57;1.30;;;;;;;;;;5049982;28;20020;-65
2021/07/31 02:37:13;;;;;;;2.42;1.08;;;;;;;;;;5050633;28;20283;-65
2021/07/31 02:39:39;;;;;;;3.77;1.17;;;;;;;;;;5050321;28;20052;-65
2021/07/31 02:42:04;;;;;;;5.93;1.13;;;;;;;;;;5050726;28;20756;-67
2021/07/31 02:44:29;;;;;;;7.30;1.38;;;;;;;;;;5050314;28;20255;-67
2021/07/31 02:46:54;;;;;;;5.20;2.17;;;;;;;;;;5050454;28;20025;-65
2021/07/31 02:49:19;;;;;;;4.23;1.20;;;;;;;;;;5050387;28;20275;-65
2021/07/31 02:51:47;;;;;;;5.18;1.45;;;;;;;;;;5050516;28;20309;-65
2021/07/31 02:54:12;;;;;;;5.30;1.20;;;;;;;;;;5050578;28;20033;-66
2021/07/31 02:56:37;;;;;;;2.77;0.97;;;;;;;;;;5050224;28;20113;-65
2021/07/31 02:59:02;;;;;;;6.47;1.47;;;;;;;;;;5032424;28;20272;-69
2021/07/31 03:01:28;;;;;;;5.20;1.00;;;;;;;;;;5051006;28;20493;-65
2021/07/31 03:03:54;;;;;;;11.53;1.27;;;;;;;;;;5050030;28;20274;-67
2021/07/31 03:06:19;;;;;;;5.90;1.10;;;;;;;;;;5050669;28;20790;-65
2021/07/31 03:08:45;;;;;;;8.13;1.50;;;;;;;;;;5050162;28;20124;-64
2021/07/31 03:11:10;;;;;;;4.38;1.25;;;;;;;;;;5050177;28;20270;-65
2021/07/31 03:13:35;;;;;;;3.43;1.10;;;;;;;;;;5049224;28;20132;-67
2021/07/31 03:16:00;;;;;;;22.23;1.60;;;;;;;;;;5050212;28;20273;-65
2021/07/31 03:18:25;;;;;;;7.10;1.73;;;;;;;;;;5050014;28;20035;-65
2021/07/31 03:20:52;;;;;;;7.10;1.40;;;;;;;;;;5050070;28;20270;-65
2021/07/31 03:23:18;;;;;;;7.30;1.48;;;;;;;;;;5050104;28;20067;-65
2021/07/31 03:25:43;;;;;;;8.55;1.60;;;;;;;;;;5049715;28;20025;-65
2021/07/31 03:28:09;;;;;;;7.65;1.30;;;;;;;;;;5049236;28;20572;-66
2021/07/31 03:30:38;;;;;;;2.45;1.15;;;;;;;;;;5050143;28;20469;-66
2021/07/31 03:33:03;;;;;;;4.78;1.25;;;;;;;;;;5050027;28;20021;-67
2021/07/31 03:35:28;;;;;;;2.60;1.50;;;;;;;;;;5045722;28;20029;-66
2021/07/31 03:37:53;;;;;;;4.30;1.63;;;;;;;;;;5049463;28;20333;-66
2021/07/31 03:40:18;;;;;;;3.58;1.60;;;;;;;;;;5049696;28;20017;-66
2021/07/31 03:42:45;;;;;;;6.13;1.43;;;;;;;;;;5052083;28;20071;-67
2021/07/31 03:45:10;;;;;;;5.10;2.05;;;;;;;;;;5053646;28;20275;-67
2021/07/31 03:47:35;;;;;;;3.72;1.33;;;;;;;;;;5053802;28;20102;-67
2021/07/31 03:50:00;;;;;;;6.87;1.40;;;;;;;;;;5054343;28;20017;-65
2021/07/31 03:52:29;;;;;;;6.88;1.13;;;;;;;;;;5053717;28;20734;-66
2021/07/31 03:54:54;;;;;;;7.28;1.27;;;;;;;;;;5054099;28;20025;-67
2021/07/31 03:57:19;;;;;;;4.83;1.67;;;;;;;;;;5053269;28;20021;-65
2021/07/31 03:59:44;;;;;;;8.60;1.20;;;;;;;;;;5053408;28;20783;-67
2021/07/31 04:02:09;;;;;;;8.43;2.00;;;;;;;;;;5053502;28;20259;-66
2021/07/31 04:04:35;;;;;;;3.30;1.50;;;;;;;;;;5053609;28;20150;-66
2021/07/31 04:07:00;;;;;;;5.38;1.42;;;;;;;;;;5035587;28;20271;-66
2021/07/31 04:09:25;;;;;;;9.63;1.75;;;;;;;;;;5053218;28;20032;-67
2021/07/31 04:11:51;;;;;;;3.72;1.58;;;;;;;;;;5035368;28;20408;-66
2021/07/31 04:14:16;;;;;;;7.72;1.48;;;;;;;;;;5053232;28;20017;-66
2021/07/31 04:16:41;;;;;;;10.38;1.80;;;;;;;;;;5053420;28;20048;-66
2021/07/31 04:19:06;;;;;;;4.72;1.05;;;;;;;;;;5052525;28;20056;-67
2021/07/31 04:21:31;;;;;;;5.13;1.80;;;;;;;;;;5053065;28;20075;-66
2021/07/31 04:23:57;;;;;;;4.67;1.57;;;;;;;;;;5053212;28;20748;-67
2021/07/31 04:26:22;;;;;;;6.23;1.90;;;;;;;;;;5052629;28;20306;-66
2021/07/31 04:28:47;;;;;;;5.03;1.73;;;;;;;;;;5052492;28;20259;-66
2021/07/31 04:31:15;;;;;;;7.38;1.75;;;;;;;;;;5053659;28;20263;-66
2021/07/31 04:33:40;;;;;;;3.00;1.20;;;;;;;;;;5052875;28;20556;-66
2021/07/31 04:36:06;;;;;;;3.13;1.10;;;;;;;;;;5052959;28;20116;-67
2021/07/31 04:38:32;;;;;;;5.60;1.60;;;;;;;;;;5053132;28;20094;-67
2021/07/31 04:40:57;;;;;;;7.82;2.08;;;;;;;;;;5053188;28;20112;-66
2021/07/31 04:43:22;;;;;;;4.50;1.58;;;;;;;;;;5052613;28;20067;-66
2021/07/31 04:45:48;;;;;;;4.90;1.67;;;;;;;;;;5053034;28;20021;-67
2021/07/31 04:48:13;;;;;;;6.47;1.17;;;;;;;;;;5052331;28;20029;-66
2021/07/31 04:50:38;;;;;;;4.93;1.60;;;;;;;;;;5052761;28;20036;-67
2021/07/31 04:53:03;;;;;;;9.65;2.25;;;;;;;;;;5052161;28;20267;-66
2021/07/31 04:55:29;;;;;;;5.40;1.75;;;;;;;;;;5052627;28;20017;-65
2021/07/31 04:57:54;;;;;;;11.40;1.77;;;;;;;;;;5052347;28;20025;-66
2021/07/31 05:00:19;;;;;;;6.40;1.60;;;;;;;;;;5052548;28;20254;-66
2021/07/31 05:02:44;;;;;;;8.85;1.90;;;;;;;;;;5052533;28;20739;-65
2021/07/31 05:05:09;;;;;;;4.53;1.42;;;;;;;;;;5052088;28;20112;-67
2021/07/31 05:07:35;;;;;;;7.53;1.83;;;;;;;;;;5051982;28;20104;-65
2021/07/31 05:10:00;;;;;;;7.15;2.03;;;;;;;;;;5052147;28;20063;-66
2021/07/31 05:12:25;;;;;;;11.85;1.83;;;;;;;;;;5044064;28;20059;-65
2021/07/31 05:14:51;;;;;;;6.93;1.90;;;;;;;;;;5052305;28;20397;-67
2021/07/31 05:17:19;;;;;;;6.97;2.10;;;;;;;;;;5054795;28;20260;-67
2021/07/31 05:19:44;;;;;;;7.55;1.42;;;;;;;;;;5051949;28;20048;-67
2021/07/31 05:22:09;;;;;;;6.37;1.80;;;;;;;;;;5052152;28;20465;-67
2021/07/31 05:24:35;;;;;;;5.90;1.83;;;;;;;;;;5050025;28;20247;-66
2021/07/31 05:27:00;;;;;;;14.25;2.10;;;;;;;;;;5051614;28;20668;-66
2021/07/31 05:29:25;;;;;;;5.57;1.50;;;;;;;;;;5051326;28;20234;-67
2021/07/31 05:31:50;;;;;;;4.13;1.90;;;;;;;;;;5051831;28;20029;-67
2021/07/31 05:34:15;;;;;;;5.77;2.13;;;;;;;;;;5052010;28;20647;-67
2021/07/31 05:36:41;;;;;;;4.97;2.33;;;;;;;;;;5050380;28;20482;-67
2021/07/31 05:39:06;;;;;;;4.38;1.85;;;;;;;;;;5045114;28;20029;-66
2021/07/31 05:41:31;;;;;;;11.07;2.00;;;;;;;;;;5049822;28;20021;-67
2021/07/31 05:43:56;;;;;;;11.37;1.87;;;;;;;;;;5051124;28;20028;-65
2021/07/31 05:46:21;;;;;;;7.28;2.22;;;;;;;;;;5052024;28;20333;-67
2021/07/31 05:48:47;;;;;;;5.95;1.85;;;;;;;;;;5033657;28;20114;-67
2021/07/31 05:51:15;;;;;;;3.33;1.55;;;;;;;;;;5033741;28;20021;-66
2021/07/31 05:53:41;;;;;;;7.78;1.80;;;;;;;;;;5051183;28;20025;-66
2021/07/31 05:56:09;;;;;;;5.53;1.60;;;;;;;;;;5051248;28;20037;-67
2021/07/31 05:58:35;;;;;;;9.15;2.95;;;;;;;;;;5048768;28;20012;-67
2021/07/31 06:01:00;;;;;;;4.95;2.15;;;;;;;;;;5033828;28;20017;-66
2021/07/31 06:03:25;;;;;;;6.20;1.33;;;;;;;;;;5051541;28;20390;-67
2021/07/31 06:05:50;;;;;;;3.40;1.80;;;;;;;;;;5050861;28;20270;-67
2021/07/31 06:08:16;;;;;;;7.15;1.80;;;;;;;;;;5051404;28;20020;-66
2021/07/31 06:10:41;;;;;;;12.05;2.03;;;;;;;;;;5050803;28;20025;-66
2021/07/31 06:13:06;;;;;;;5.40;2.03;;;;;;;;;;5078020;22;20049;-65
2021/07/31 06:15:31;;;;;;;11.52;2.90;;;;;;;;;;5068273;28;20103;-65
2021/07/31 06:17:57;;;;;;;5.28;1.58;;;;;;;;;;5071002;28;20062;-65
2021/07/31 06:20:22;;;;;;;8.15;2.13;;;;;;;;;;5070876;28;20111;-65
2021/07/31 06:22:47;;;;;;;5.07;1.60;;;;;;;;;;5070933;28;20033;-65
2021/07/31 06:25:12;;;;;;;9.05;1.75;;;;;;;;;;5070932;28;20259;-65
2021/07/31 06:27:37;;;;;;;7.63;1.47;;;;;;;;;;5070301;28;20025;-65
2021/07/31 06:30:03;;;;;;;4.70;1.30;;;;;;;;;;5070901;28;20270;-65
2021/07/31 06:32:28;;;;;;;8.02;2.17;;;;;;;;;;5070847;28;20285;-65
2021/07/31 06:34:53;;;;;;;5.75;1.70;;;;;;;;;;5070228;28;20518;-65
2021/07/31 06:37:18;;;;;;;5.17;1.70;;;;;;;;;;5071005;28;20035;-65
2021/07/31 06:39:43;;;;;;;3.50;1.53;;;;;;;;;;5069441;28;20013;-65
2021/07/31 06:42:09;;;;;;;9.80;1.80;;;;;;;;;;5064568;28;20279;-65
2021/07/31 06:44:34;;;;;;;4.18;1.35;;;;;;;;;;5055648;28;20393;-65
2021/07/31 06:47:00;;;;;;;4.25;1.20;;;;;;;;;;5067117;28;20400;-65
2021/07/31 06:49:25;;;;;;;6.60;2.27;;;;;;;;;;5067863;28;20480;-65
2021/07/31 06:51:51;;;;;;;4.43;1.60;;;;;;;;;;5067573;28;20291;-65
2021/07/31 06:54:16;;;;;;;7.65;1.98;;;;;;;;;;5068055;28;20690;-65
2021/07/31 06:56:41;;;;;;;4.55;1.35;;;;;;;;;;5067191;28;20074;-65
2021/07/31 06:59:07;;;;;;;4.90;2.13;;;;;;;;;;5067057;28;20085;-65
2021/07/31 07:01:32;;;;;;;4.13;1.40;;;;;;;;;;5067017;28;20048;-65
2021/07/31 07:03:57;;;;;;;9.38;2.25;;;;;;;;;;5067100;28;20274;-65
2021/07/31 07:06:23;;;;;;;4.70;2.40;;;;;;;;;;5067932;28;20093;-65
2021/07/31 07:08:48;;;;;;;8.77;1.88;;;;;;;;;;5067201;28;20032;-66
2021/07/31 07:11:14;;;;;;;5.10;1.73;;;;;;;;;;5069450;28;20107;-66
2021/07/31 07:13:39;;;;;;;8.15;1.83;;;;;;;;;;5071451;28;20107;-66
2021/07/31 07:16:05;;;;;;;6.28;1.50;;;;;;;;;;5067319;28;20096;-66
2021/07/31 07:18:30;;;;;;;5.90;1.85;;;;;;;;;;5067246;28;20028;-66
2021/07/31 07:20:56;;;;;;;5.30;1.63;;;;;;;;;;5067292;28;20031;-66
2021/07/31 07:23:21;;;;;;;8.87;1.70;;;;;;;;;;5065625;28;20438;-66
2021/07/31 07:25:46;;;;;;;6.20;1.87;;;;;;;;;;5067061;28;20032;-66
2021/07/31 07:28:11;;;;;;;6.27;1.73;;;;;;;;;;5063830;28;20369;-66
2021/07/31 07:30:37;;;;;;;6.75;1.92;;;;;;;;;;5066624;28;20020;-66
2021/07/31 07:33:03;;;;;;;2.33;0.80;;;;;;;;;;5067860;28;20025;-66
2021/07/31 07:35:28;;;;;;;5.55;2.20;;;;;;;;;;5067317;28;20032;-66
2021/07/31 07:37:53;;;;;;;4.43;1.60;;;;;;;;;;5066203;28;20052;-66
2021/07/31 07:40:18;;;;;;;5.57;1.47;;;;;;;;;;5065940;28;20020;-66
2021/07/31 07:42:43;;;;;;;6.00;1.90;;;;;;;;;;5066659;28;20274;-66
2021/07/31 07:45:09;;;;;;;4.27;2.17;;;;;;;;;;5064538;28;20203;-66
2021/07/31 07:47:34;;;;;;;7.40;1.65;;;;;;;;;;5063292;28;20020;-66
2021/07/31 07:50:00;;;;;;;6.70;1.65;;;;;;;;;;5066667;28;20035;-66
2021/07/31 07:52:25;;;;;;;8.48;1.90;;;;;;;;;;5067389;28;20024;-66
2021/07/31 07:54:51;;;;;;;3.67;1.67;;;;;;;;;;5066529;28;20173;-66
2021/07/31 07:57:17;;;;;;;6.17;1.90;;;;;;;;;;5066903;28;20267;-66
2021/07/31 07:59:42;;;;;;;2.97;1.30;;;;;;;;;;5066085;28;20314;-66
2021/07/31 08:02:07;;;;;;;4.05;1.73;;;;;;;;;;5066793;28;20532;-66
2021/07/31 08:04:33;;;;;;;4.03;1.60;;;;;;;;;;5067792;28;20399;-66
2021/07/31 08:06:59;;;;;;;8.50;1.50;;;;;;;;;;5067782;28;20270;-66
2021/07/31 08:09:24;;;;;;;6.05;1.58;;;;;;;;;;5063006;28;20064;-66
2021/07/31 08:11:49;;;;;;;3.73;1.63;;;;;;;;;;5064563;28;20108;-66
2021/07/31 08:14:14;;;;;;;4.83;1.93;;;;;;;;;;5066594;28;20281;-66
2021/07/31 08:16:40;;;;;;;6.97;2.43;;;;;;;;;;5066588;28;20028;-66
2021/07/31 08:19:06;;;;;;;13.10;3.45;;;;;;;;;;5066691;28;20028;-66
2021/07/31 08:21:32;;;;;;;7.22;2.10;;;;;;;;;;5067051;28;20074;-66
2021/07/31 08:23:57;;;;;;;11.90;3.10;;;;;;;;;;5066885;28;20503;-66
2021/07/31 08:26:22;;;;;;;9.60;2.37;;;;;;;;;;5063513;28;20032;-66
2021/07/31 08:28:47;;;;;;;6.07;1.83;;;;;;;;;;5066660;28;20115;-66
2021/07/31 08:31:12;;;;;;;7.73;1.60;;;;;;;;;;5068489;28;20032;-66
2021/07/31 08:33:38;;;;;;;10.82;2.22;;;;;;;;;;5068525;28;20293;-66
2021/07/31 08:36:04;;;;;;;7.13;1.60;;;;;;;;;;5073012;28;20135;-66
2021/07/31 08:38:29;;;;;;;10.20;2.10;;;;;;;;;;5072225;28;20385;-66
2021/07/31 08:40:54;;;;;;;6.75;2.08;;;;;;;;;;5071281;28;20114;-67
2021/07/31 08:43:20;;;;;;;11.33;1.90;;;;;;;;;;5071836;28;20047;-67
2021/07/31 08:45:45;;;;;;;3.63;1.45;;;;;;;;;;5072342;28;20338;-66
2021/07/31 08:48:11;;;;;;;7.25;2.30;;;;;;;;;;5072091;28;20025;-66
2021/07/31 08:50:37;;;;;;;8.25;1.83;;;;;;;;;;5072097;28;20507;-66
2021/07/31 08:53:02;;;;;;;9.88;2.45;;;;;;;;;;5067414;28;20024;-66
2021/07/31 08:55:27;;;;;;;5.35;1.60;;;;;;;;;;5070597;28;20026;-66
2021/07/31 08:57:52;;;;;;;9.27;2.17;;;;;;;;;;5072144;28;20055;-66
2021/07/31 09:00:18;;;;;;;8.18;2.22;;;;;;;;;;5070442;28;20012;-66
2021/07/31 09:02:46;;;;;;;8.45;1.42;;;;;;;;;;5071010;28;20025;-66
2021/07/31 09:05:18;;;;;;;9.27;1.65;;;;;;;;;;5072498;28;20025;-66
2021/07/31 09:07:48;;;;;;;5.47;1.52;;;;;;;;;;5072756;28;20032;-66
2021/07/31 09:10:25;;;;;;;9.90;1.83;;;;;;;;;;5072747;28;20073;-66
2021/07/31 09:12:54;;;;;;;2.83;0.93;;;;;;;;;;5068782;28;20507;-66
2021/07/31 09:15:29;;;;;;;6.00;1.15;;;;;;;;;;5072071;28;20035;-66
2021/07/31 09:18:00;;;;;;;4.38;1.83;;;;;;;;;;5071254;28;20031;-67
2021/07/31 09:20:25;;;;;;;;;;;;;;;;;;5070340;28;20025;-66
2021/07/31 09:22:51;;;;;;;4.25;1.35;;;;;;;;;;5071890;28;19999;-66
2021/07/31 09:25:16;;;;;;;4.97;1.20;;;;;;;;;;5072340;28;20095;-66
2021/07/31 09:27:42;;;;;;;6.68;1.30;;;;;;;;;;5071538;28;20532;-67
2021/07/31 09:30:07;;;;;;;5.20;1.40;;;;;;;;;;5072383;28;20091;-66
2021/07/31 09:32:36;;;;;;;4.78;1.73;;;;;;;;;;5070580;28;20366;-65
2021/07/31 09:35:01;;;;;;;2.15;1.23;;;;;;;;;;5068762;28;20024;-66
2021/07/31 09:37:29;;;;;;;4.27;1.40;;;;;;;;;;5071511;28;20020;-66
2021/07/31 09:40:02;;;;;;;8.32;1.90;;;;;;;;;;5070433;28;20023;-65
2021/07/31 09:42:29;;;;;;;3.28;1.42;;;;;;;;;;5067037;28;20028;-66
2021/07/31 09:44:54;;;;;;;5.10;1.25;;;;;;;;;;5071214;28;20482;-66
2021/07/31 09:47:20;;;;;;;3.60;1.42;;;;;;;;;;5071292;28;20107;-66
2021/07/31 09:49:46;;;;;;;9.13;1.80;;;;;;;;;;5071089;28;20043;-66
2021/07/31 09:52:18;;;;;;;4.53;1.90;;;;;;;;;;5070579;28;20735;-66
2021/07/31 09:54:44;;;;;;;4.60;1.55;;;;;;;;;;5054582;28;20021;-66
2021/07/31 09:57:10;;;;;;;5.30;1.45;;;;;;;;;;5071503;28;20150;-67
2021/07/31 09:59:36;;;;;;;5.43;1.58;;;;;;;;;;5071308;28;20062;-65
2021/07/31 10:02:05;;;;;;;5.63;1.40;;;;;;;;;;5070578;28;20551;-65
2021/07/31 10:04:34;;;;;;;3.87;1.27;;;;;;;;;;5059409;28;20032;-68
2021/07/31 10:07:02;;;;;;;3.85;1.23;;;;;;;;;;5070899;28;20020;-67
2021/07/31 10:09:28;;;;;;;6.07;1.50;;;;;;;;;;5070910;28;20025;-67
2021/07/31 10:11:54;;;;;;;11.38;1.70;;;;;;;;;;5071043;28;20091;-66
2021/07/31 10:14:19;;;;;;;6.63;1.60;;;;;;;;;;5070809;28;20048;-67
2021/07/31 10:16:46;;;;;;;5.55;1.77;;;;;;;;;;5070081;28;20017;-68
2021/07/31 10:19:11;;;;;;;4.57;1.23;;;;;;;;;;5069947;28;20108;-67
2021/07/31 10:21:55;;;;;;;1.85;1.15;;;;;;;;;;5070915;28;20096;-67
2021/07/31 10:24:21;;;;;;;2.15;1.33;;;;;;;;;;5059921;28;20023;-68
2021/07/31 10:27:04;;;;;;;10.65;1.85;;;;;;;;;;5070787;28;20017;-68
2021/07/31 10:29:32;;;;;;;5.35;1.10;;;;;;;;;;5064407;28;20042;-66
2021/07/31 10:32:20;;;;;;;9.20;1.40;;;;;;;;;;5073348;28;20034;-67
2021/07/31 10:34:46;;;;;;;8.68;2.90;;;;;;;;;;5077794;28;20079;-68
2021/07/31 10:37:29;;;;;;;6.13;1.50;;;;;;;;;;5071333;28;20161;-67
2021/07/31 10:39:56;;;;;;;3.95;1.17;;;;;;;;;;5070833;28;20535;-66
2021/07/31 10:42:21;;;;;;;4.25;1.25;;;;;;;;;;5071183;28;20534;-67
2021/07/31 10:45:05;;;;;;;5.28;1.40;;;;;;;;;;5070877;28;20020;-68
2021/07/31 10:47:30;;;;;;;8.43;1.50;;;;;;;;;;5070741;28;20082;-67
2021/07/31 10:49:55;;;;;;;4.35;2.15;;;;;;;;;;5070828;28;20020;-66
2021/07/31 10:52:39;;;;;;;3.63;1.83;;;;;;;;;;5070444;28;20032;-68
2021/07/31 10:55:04;;;;;;;5.35;1.75;;;;;;;;;;5070755;28;20027;-67
2021/07/31 10:57:50;;;;;;;9.85;1.65;;;;;;;;;;5070690;28;20028;-66
2021/07/31 11:00:25;;;;;;;6.05;1.25;;;;;;;;;;5002287;28;20029;-67
2021/07/31 11:02:51;;;;;;;8.43;1.80;;;;;;;;;;5070499;28;20682;-67
2021/07/31 11:05:16;;;;;;;9.85;2.08;;;;;;;;;;5070615;28;20103;-68
2021/07/31 11:07:56;;;;;;;5.63;1.20;;;;;;;;;;5070173;28;20097;-67
2021/07/31 11:10:31;;;;;;;5.38;1.50;;;;;;;;;;5070919;28;20104;-66
2021/07/31 11:12:57;;;;;;;7.00;1.33;;;;;;;;;;5070327;28;20543;-67
2021/07/31 11:15:23;;;;;;;7.60;1.95;;;;;;;;;;5070713;28;20111;-67
2021/07/31 11:17:58;;;;;;;3.40;1.30;;;;;;;;;;5070391;28;20016;-66
2021/07/31 11:20:33;;;;;;;4.00;1.50;;;;;;;;;;5070677;28;20385;-67
2021/07/31 11:23:01;;;;;;;13.30;2.05;;;;;;;;;;5070830;28;20025;-67
2021/07/31 11:25:27;;;;;;;5.53;1.42;;;;;;;;;;5070738;28;20557;-67
2021/07/31 11:27:59;;;;;;;8.50;1.63;;;;;;;;;;5070311;28;20036;-67
2021/07/31 11:30:44;;;;;;;7.32;2.28;;;;;;;;;;5070541;28;20012;-68
2021/07/31 11:33:20;;;;;;;3.03;1.40;;;;;;;;;;5070235;28;20362;-66
2021/07/31 11:35:47;;;;;;;5.90;2.22;;;;;;;;;;5069937;28;20040;-67
2021/07/31 11:38:32;;;;;;;13.65;1.48;;;;;;;;;;5070191;28;20012;-68
2021/07/31 11:40:58;;;;;;;5.13;1.98;;;;;;;;;;5068637;28;20074;-68
2021/07/31 11:43:23;;;;;;;5.85;2.10;;;;;;;;;;5069953;28;20028;-68
2021/07/31 11:45:48;;;;;;;5.77;1.57;;;;;;;;;;5069791;28;20377;-68
2021/07/31 11:48:14;;;;;;;6.50;2.13;;;;;;;;;;5067036;28;20316;-68
2021/07/31 11:50:58;;;;;;;8.07;1.52;;;;;;;;;;5066098;28;20104;-68
2021/07/31 11:53:24;;;;;;;6.22;1.35;;;;;;;;;;5064960;28;20090;-67
2021/07/31 11:55:49;;;;;;;8.70;1.90;;;;;;;;;;5067120;28;20425;-69
2021/07/31 11:58:15;;;;;;;4.82;1.90;;;;;;;;;;5065896;28;20546;-67
2021/07/31 12:00:40;;;;;;;5.57;1.73;;;;;;;;;;5069326;28;20020;-68
2021/07/31 12:03:35;;;;;;;6.70;1.77;;;;;;;;;;5070234;28;20082;-67
2021/07/31 12:06:00;;;;;;;4.28;1.50;;;;;;;;;;5051390;28;20111;-68
2021/07/31 12:08:43;;;;;;;3.30;1.50;;;;;;;;;;5073327;28;20096;-68
2021/07/31 12:11:08;;;;;;;7.35;1.95;;;;;;;;;;5067971;28;20055;-68
2021/07/31 12:13:34;;;;;;;6.60;1.50;;;;;;;;;;5073443;28;20052;-67
2021/07/31 12:15:59;;;;;;;5.60;1.75;;;;;;;;;;5072902;28;20036;-67
2021/07/31 12:18:28;;;;;;;10.03;1.77;;;;;;;;;;5072594;28;20480;-70
2021/07/31 12:20:54;;;;;;;9.43;1.95;;;;;;;;;;5072866;28;20488;-68
2021/07/31 12:23:33;;;;;;;6.93;1.85;;;;;;;;;;5073412;28;20021;-68
2021/07/31 12:25:59;;;;;;;12.35;1.83;;;;;;;;;;5072234;28;20028;-69
2021/07/31 12:28:37;;;;;;;9.60;2.47;;;;;;;;;;5072214;28;20021;-67
2021/07/31 12:31:19;;;;;;;4.72;1.90;;;;;;;;;;5060889;28;20050;-69
2021/07/31 12:33:45;;;;;;;6.43;2.10;;;;;;;;;;5068635;28;20036;-69
2021/07/31 12:36:10;;;;;;;3.07;1.77;;;;;;;;;;5071772;28;20032;-69
2021/07/31 12:38:35;;;;;;;6.57;1.83;;;;;;;;;;5071293;28;20270;-70
2021/07/31 12:41:01;;;;;;;5.80;1.53;;;;;;;;;;5072430;28;20082;-69
2021/07/31 12:43:27;;;;;;;2.50;1.23;;;;;;;;;;5072735;28;20294;-68
2021/07/31 12:45:54;;;;;;;3.88;1.42;;;;;;;;;;5072759;28;20032;-70
2021/07/31 12:48:19;;;;;;;6.63;1.80;;;;;;;;;;5072350;28;20739;-69
2021/07/31 12:50:44;;;;;;;3.17;1.40;;;;;;;;;;5072885;28;20051;-68
2021/07/31 12:53:13;;;;;;;3.67;1.15;;;;;;;;;;5072732;28;20275;-67
2021/07/31 12:55:38;;;;;;;3.40;1.05;;;;;;;;;;5072616;28;20435;-67
2021/07/31 12:58:04;;;;;;;4.75;1.42;;;;;;;;;;5071886;28;20095;-68
2021/07/31 13:00:29;;;;;;;3.30;1.17;;;;;;;;;;5072427;28;20062;-68
2021/07/31 13:02:54;;;;;;;3.57;1.20;;;;;;;;;;5075489;28;20112;-67
2021/07/31 13:05:20;;;;;;;12.98;1.30;;;;;;;;;;5072204;28;20376;-69
2021/07/31 13:07:45;;;;;;;6.20;1.40;;;;;;;;;;5072560;28;20517;-68
2021/07/31 13:10:11;;;;;;;3.47;1.40;;;;;;;;;;5063585;28;20032;-69
2021/07/31 13:12:36;;;;;;;3.13;1.30;;;;;;;;;;5071878;28;20075;-67
2021/07/31 13:15:01;;;;;;;11.50;1.73;;;;;;;;;;5072012;28;20100;-68
2021/07/31 13:17:27;;;;;;;7.38;1.70;;;;;;;;;;5072475;28;20671;-69
2021/07/31 13:19:52;;;;;;;3.70;1.60;;;;;;;;;;5072003;28;20038;-67
2021/07/31 13:22:17;;;;;;;3.30;1.50;;;;;;;;;;5071993;28;20024;-69
2021/07/31 13:24:42;;;;;;;1.90;1.03;;;;;;;;;;5072218;28;20279;-67
2021/07/31 13:27:08;;;;;;;4.63;1.10;;;;;;;;;;5071607;28;20032;-69
2021/07/31 13:29:33;;;;;;;2.70;1.23;;;;;;;;;;5062896;28;20028;-68
2021/07/31 13:31:58;;;;;;;3.83;0.95;;;;;;;;;;5067490;28;20028;-68
2021/07/31 13:34:24;;;;;;;4.20;1.00;;;;;;;;;;5070552;28;20092;-68
2021/07/31 13:36:51;;;;;;;2.83;1.10;;;;;;;;;;5070335;28;20008;-69
2021/07/31 13:39:20;;;;;;;2.78;1.30;;;;;;;;;;5066818;28;20321;-68
2021/07/31 13:41:45;;;;;;;5.85;3.17;;;;;;;;;;5071905;28;20016;-68
2021/07/31 13:44:14;;;;;;;6.10;0.80;;;;;;;;;;5051057;28;20090;-68
2021/07/31 13:46:40;;;;;;;9.63;1.77;;;;;;;;;;5066488;28;20031;-69
2021/07/31 13:49:05;;;;;;;3.03;1.27;;;;;;;;;;5068363;28;20033;-67
2021/07/31 13:51:30;;;;;;;5.63;1.47;;;;;;;;;;5051170;28;20028;-67
2021/07/31 13:53:56;;;;;;;2.60;1.30;;;;;;;;;;5068627;28;20354;-68
2021/07/31 13:56:21;;;;;;;2.08;1.10;;;;;;;;;;5068891;28;20477;-67
2021/07/31 13:58:46;;;;;;;14.30;1.92;;;;;;;;;;5065525;28;20541;-68
2021/07/31 14:01:12;;;;;;;4.87;1.43;;;;;;;;;;5068486;28;20446;-70
2021/07/31 14:03:39;;;;;;;2.17;1.50;;;;;;;;;;5069021;28;20262;-68
2021/07/31 14:06:04;;;;;;;5.72;1.15;;;;;;;;;;5068413;28;20035;-68
2021/07/31 14:08:29;;;;;;;7.47;1.30;;;;;;;;;;5068514;28;20017;-68
2021/07/31 14:10:54;;;;;;;2.93;1.40;;;;;;;;;;5061056;28;20271;-68
2021/07/31 14:13:20;;;;;;;6.60;1.50;;;;;;;;;;5068559;28;20271;-68
2021/07/31 14:15:46;;;;;;;4.47;1.40;;;;;;;;;;5068187;28;20293;-68
2021/07/31 14:18:11;;;;;;;3.75;1.15;;;;;;;;;;5067808;28;20060;-68
2021/07/31 14:20:38;;;;;;;4.43;1.45;;;;;;;;;;5068269;28;20464;-68
2021/07/31 14:23:03;;;;;;;3.47;1.30;;;;;;;;;;5066303;28;20032;-68
2021/07/31 14:25:30;;;;;;;4.60;1.57;;;;;;;;;;5068412;28;20025;-67
2021/07/31 14:27:55;;;;;;;4.28;1.60;;;;;;;;;;5067673;28;20117;-68
2021/07/31 14:30:20;;;;;;;4.10;1.43;;;;;;;;;;5067131;28;20055;-69
2021/07/31 14:32:46;;;;;;;2.03;1.37;;;;;;;;;;5067185;28;20593;-68
2021/07/31 14:35:14;;;;;;;9.38;1.60;;;;;;;;;;5067689;28;20113;-68
2021/07/31 14:37:39;;;;;;;5.88;1.92;;;;;;;;;;5067686;28;20058;-68
2021/07/31 14:40:04;;;;;;;5.28;2.10;;;;;;;;;;5067646;28;20422;-67